Time;durP1;ratioP1;P1;durP2;ratioP2;P2;SDS_P1;SDS_P2;PMS_P1;PMS_P2;Temp;Humidity;BMP_temperature;BMP_pressure;BME280_temperature;BME280_humidity;BME280_pressure;Samples;Min_cycle;Max_cycle;Signal;HPM_P1;HPM_P2
2022/11/03 00:00:26;;;;;;;6.13;1.20;;;12.00;99.90;;;;;;4977684;28;20124;-73
2022/11/03 00:02:52;;;;;;;6.30;1.35;;;12.00;99.90;;;;;;4987750;28;20034;-71
2022/11/03 00:08:02;;;;;;;7.65;1.50;;;12.00;99.90;;;;;;4965459;28;20048;-72
2022/11/03 00:10:29;;;;;;;4.70;1.20;;;12.00;99.90;;;;;;4986791;28;20050;-74
2022/11/03 00:12:59;;;;;;;9.73;1.70;;;12.00;99.90;;;;;;4954171;28;20030;-72
2022/11/03 00:15:25;;;;;;;6.90;1.08;;;12.00;99.90;;;;;;4972413;28;20139;-74
2022/11/03 00:17:52;;;;;;;7.82;1.40;;;12.00;99.90;;;;;;4996818;28;20038;-74
2022/11/03 00:20:19;;;;;;;9.02;1.50;;;12.00;99.90;;;;;;4975281;28;20084;-73
2022/11/03 00:22:46;;;;;;;8.63;1.65;;;12.00;99.90;;;;;;4944440;28;20100;-72
2022/11/03 00:25:12;;;;;;;;;;;12.00;99.90;;;;;;4992413;28;20448;-73
2022/11/03 00:27:38;;;;;;;6.95;1.00;;;12.00;99.90;;;;;;4943991;28;19984;-72
2022/11/03 00:30:04;;;;;;;8.27;1.85;;;12.00;99.90;;;;;;4982364;28;20068;-74
2022/11/03 00:32:30;;;;;;;8.52;1.52;;;12.00;99.90;;;;;;4983611;28;20077;-71
2022/11/03 00:34:56;;;;;;;4.53;1.83;;;12.00;99.90;;;;;;4969977;28;20432;-73
2022/11/03 00:37:21;;;;;;;5.35;1.20;;;12.00;99.90;;;;;;4980505;28;20108;-73
2022/11/03 00:39:47;;;;;;;4.70;2.08;;;11.90;99.90;;;;;;4969163;28;20169;-73
2022/11/03 00:42:13;;;;;;;6.23;1.40;;;12.00;99.90;;;;;;4977075;28;20118;-72
2022/11/03 00:44:39;;;;;;;6.65;1.52;;;11.90;99.90;;;;;;4965191;28;20363;-72
2022/11/03 00:47:04;;;;;;;5.72;1.60;;;11.90;99.90;;;;;;4969695;28;20211;-73
2022/11/03 00:49:30;;;;;;;4.88;1.60;;;11.90;99.90;;;;;;4979407;28;20088;-72
2022/11/03 00:51:56;;;;;;;6.72;1.48;;;11.90;99.90;;;;;;4969433;28;20101;-72
2022/11/03 00:54:22;;;;;;;9.00;1.42;;;11.90;99.90;;;;;;4980943;28;20613;-72
2022/11/03 00:56:48;;;;;;;3.40;1.20;;;11.90;99.90;;;;;;4984478;28;20130;-72
2022/11/03 00:59:13;;;;;;;4.90;2.13;;;11.90;99.90;;;;;;4982066;28;20065;-72
2022/11/03 01:01:41;;;;;;;8.83;1.60;;;11.90;99.90;;;;;;4988577;28;20227;-71
2022/11/03 01:06:55;;;;;;;4.70;1.23;;;11.80;99.90;;;;;;4969048;28;20042;-71
2022/11/03 01:09:36;;;;;;;13.15;1.60;;;11.80;99.90;;;;;;4975644;28;20070;-73
2022/11/03 01:12:12;;;;;;;6.47;1.83;;;11.80;99.90;;;;;;5001131;28;20191;-73
2022/11/03 01:14:43;;;;;;;8.52;1.33;;;11.80;99.90;;;;;;4983382;28;20042;-73
2022/11/03 01:17:20;;;;;;;6.93;1.13;;;11.70;99.90;;;;;;4976995;28;20042;-74
2022/11/03 01:19:47;;;;;;;5.97;1.52;;;11.70;99.90;;;;;;4985833;28;20074;-72
2022/11/03 01:22:14;;;;;;;8.32;1.70;;;11.70;99.90;;;;;;4971443;28;20444;-72
2022/11/03 01:24:48;;;;;;;10.70;1.58;;;11.70;99.90;;;;;;4941329;28;20236;-73
2022/11/03 01:27:18;;;;;;;9.32;2.28;;;11.70;99.90;;;;;;4894510;28;20058;-73
2022/11/03 01:29:45;;;;;;;5.43;1.40;;;11.60;99.90;;;;;;4977039;28;20570;-73
2022/11/03 01:32:17;;;;;;;;;;;11.70;99.90;;;;;;4910700;28;20339;-75
2022/11/03 01:34:49;;;;;;;4.97;1.20;;;11.60;99.90;;;;;;4963258;28;19917;-72
2022/11/03 01:37:15;;;;;;;9.40;1.48;;;11.60;99.90;;;;;;4957570;28;20125;-72
2022/11/03 01:39:41;;;;;;;4.97;1.27;;;11.60;99.90;;;;;;4971169;28;20076;-72
2022/11/03 01:42:12;;;;;;;15.55;1.33;;;11.60;99.90;;;;;;4997204;28;20057;-72
2022/11/03 01:44:46;;;;;;;6.38;2.00;;;11.60;99.90;;;;;;4976303;28;20050;-72
2022/11/03 01:47:30;;;;;;;5.97;2.08;;;11.50;99.90;;;;;;4890917;28;20289;-74
2022/11/03 01:50:15;;;;;;;9.18;2.15;;;11.50;99.90;;;;;;4871861;28;20523;-73
2022/11/03 01:52:59;;;;;;;6.30;1.52;;;11.50;99.90;;;;;;4875787;28;20145;-72
2022/11/03 01:55:34;;;;;;;8.85;1.50;;;11.50;99.90;;;;;;4865466;28;20443;-72
2022/11/03 01:58:32;;;;;;;5.93;1.20;;;11.40;99.90;;;;;;4890965;28;20442;-72
2022/11/03 02:01:07;;;;;;;10.50;1.50;;;11.40;99.90;;;;;;4881002;28;20446;-68
2022/11/03 02:04:01;;;;;;;6.75;1.30;;;11.30;99.90;;;;;;4954245;28;20043;-68
2022/11/03 02:06:30;;;;;;;5.38;1.35;;;11.30;99.90;;;;;;4975738;28;20114;-69
2022/11/03 02:09:01;;;;;;;5.78;1.40;;;11.30;99.90;;;;;;4991673;28;20109;-69
2022/11/03 02:14:13;;;;;;;4.55;1.15;;;11.10;99.90;;;;;;4991308;28;20039;-68
2022/11/03 02:16:53;;;;;;;8.05;1.60;;;11.10;99.90;;;;;;4965969;28;20066;-69
2022/11/03 02:19:26;;;;;;;13.05;1.98;;;11.10;99.90;;;;;;4974799;28;20302;-74
2022/11/03 02:22:34;;;;;;;7.38;1.45;;;11.10;99.90;;;;;;4991801;28;20034;-75
2022/11/03 02:25:10;;;;;;;7.97;1.83;;;11.10;99.90;;;;;;4988724;28;20104;-67
2022/11/03 02:27:36;;;;;;;8.05;1.23;;;11.00;99.90;;;;;;4977705;28;20050;-74
2022/11/03 02:30:02;;;;;;;5.95;2.35;;;11.00;99.90;;;;;;4991707;28;20441;-72
2022/11/03 02:32:55;;;;;;;6.07;1.48;;;11.00;99.90;;;;;;4973959;28;20050;-67
2022/11/03 02:35:28;;;;;;;11.43;2.00;;;11.00;99.90;;;;;;4968728;28;20049;-71
2022/11/03 02:37:58;;;;;;;8.00;1.40;;;11.00;99.90;;;;;;4990839;28;20101;-68
2022/11/03 02:40:34;;;;;;;12.60;2.63;;;11.00;99.90;;;;;;4969533;28;20046;-67
2022/11/03 02:43:01;;;;;;;13.05;2.97;;;11.00;99.90;;;;;;4966090;28;20050;-68
2022/11/03 02:45:28;;;;;;;6.53;1.38;;;11.00;99.90;;;;;;4968741;28;20409;-68
2022/11/03 02:48:01;;;;;;;6.85;1.35;;;11.00;99.90;;;;;;4986392;28;20034;-68
2022/11/03 02:50:29;;;;;;;9.38;1.67;;;11.00;99.90;;;;;;4992986;28;20129;-68
2022/11/03 02:52:56;;;;;;;6.25;1.60;;;11.00;99.90;;;;;;4964027;28;20046;-68
2022/11/03 02:55:44;;;;;;;;;;;11.10;99.90;;;;;;4981522;28;20042;-68
2022/11/03 02:58:31;;;;;;;4.63;1.33;;;11.00;99.90;;;;;;4984795;28;19924;-68
2022/11/03 03:01:20;;;;;;;6.97;1.40;;;11.00;99.90;;;;;;4963753;28;20124;-68
2022/11/03 03:03:51;;;;;;;13.07;1.92;;;11.00;99.90;;;;;;4998215;28;20129;-68
2022/11/03 03:14:10;;;;;;;10.23;2.03;;;11.00;99.90;;;;;;4912260;29;20090;-84
2022/11/03 03:17:46;;;;;;;5.45;1.25;;;11.00;99.90;;;;;;4881994;29;20295;-84
2022/11/03 03:21:10;;;;;;;5.75;1.30;;;11.10;99.90;;;;;;4875375;29;1147615;-83
2022/11/03 03:24:21;;;;;;;3.28;1.17;;;11.00;99.90;;;;;;4890880;29;20517;-83
2022/11/03 03:26:49;;;;;;;5.72;1.65;;;11.00;99.90;;;;;;4878528;29;20048;-83
2022/11/03 03:29:46;;;;;;;4.07;1.02;;;11.00;99.90;;;;;;4854378;29;20048;-83
2022/11/03 03:33:54;;;;;;;;;;;;;;;;;;;;;
2022/11/03 03:36:25;;;;;;;6.38;1.17;;;10.90;99.90;;;;;;4892378;29;20048;-84
2022/11/03 03:39:54;;;;;;;2.17;0.98;;;10.90;99.90;;;;;;4911508;29;20048;-83
2022/11/03 03:45:55;;;;;;;7.00;2.20;;;10.90;99.90;;;;;;4897520;22;20189;-72
2022/11/03 03:48:21;;;;;;;12.70;1.55;;;10.90;99.90;;;;;;4990950;28;20097;-73
2022/11/03 03:50:48;;;;;;;6.47;2.38;;;10.90;99.90;;;;;;4979237;28;20129;-73
2022/11/03 03:53:16;;;;;;;7.95;1.70;;;10.90;99.90;;;;;;4971979;28;20053;-72
2022/11/03 03:55:46;;;;;;;7.95;2.08;;;10.80;99.90;;;;;;4986578;28;20257;-71
2022/11/03 03:58:13;;;;;;;10.95;2.15;;;10.80;99.90;;;;;;4972709;28;20097;-73
2022/11/03 04:00:40;;;;;;;4.68;1.65;;;10.80;99.90;;;;;;4976294;28;20081;-73
2022/11/03 04:03:11;;;;;;;7.72;2.15;;;10.80;99.90;;;;;;4960938;28;20042;-73
2022/11/03 04:05:37;;;;;;;8.73;1.60;;;10.80;99.90;;;;;;4965548;28;20205;-72
2022/11/03 04:08:03;;;;;;;6.43;1.30;;;10.80;99.90;;;;;;4965447;28;20262;-72
2022/11/03 04:10:29;;;;;;;6.97;1.83;;;10.70;99.90;;;;;;4964733;28;20053;-73
2022/11/03 04:23:52;;;;;;;6.65;1.40;;;10.70;99.90;;;;;;4988259;28;20120;-72
2022/11/03 04:26:21;;;;;;;8.80;1.77;;;10.70;99.90;;;;;;4989460;28;20117;-68
2022/11/03 04:28:48;;;;;;;5.78;1.33;;;10.70;99.90;;;;;;4970232;28;20062;-69
2022/11/03 04:31:15;;;;;;;;;;;10.70;99.90;;;;;;4964804;28;20074;-69
2022/11/03 04:33:42;;;;;;;5.28;1.50;;;10.60;99.90;;;;;;4989376;28;19918;-69
2022/11/03 04:36:23;;;;;;;10.85;1.70;;;10.70;99.90;;;;;;4981830;28;20074;-72
2022/11/03 04:38:50;;;;;;;7.93;1.38;;;10.70;99.90;;;;;;4969939;28;20472;-71
2022/11/03 04:41:19;;;;;;;8.07;1.50;;;10.80;99.90;;;;;;4987186;28;20084;-71
2022/11/03 04:43:48;;;;;;;11.75;2.03;;;10.70;99.90;;;;;;4956148;28;20443;-72
2022/11/03 04:46:25;;;;;;;9.02;1.55;;;10.80;99.90;;;;;;4984019;28;20046;-71
2022/11/03 04:48:52;;;;;;;5.93;1.80;;;10.80;99.90;;;;;;4971372;28;20513;-71
2022/11/03 04:51:24;;;;;;;4.25;1.83;;;10.80;99.90;;;;;;4985723;28;20120;-71
2022/11/03 04:54:22;;;;;;;8.07;1.90;;;10.80;99.90;;;;;;4976133;28;20567;-71
2022/11/03 04:56:48;;;;;;;4.55;1.80;;;10.80;99.90;;;;;;4953463;28;20219;-71
2022/11/03 04:59:15;;;;;;;10.77;1.63;;;10.80;99.90;;;;;;4965135;28;20191;-71
2022/11/03 05:01:43;;;;;;;7.38;1.63;;;10.80;99.90;;;;;;4984901;28;20438;-71
2022/11/03 05:04:15;;;;;;;6.97;1.83;;;10.90;99.90;;;;;;4972444;28;20093;-74
2022/11/03 05:06:49;;;;;;;6.00;1.30;;;10.90;99.90;;;;;;4970526;28;20181;-71
2022/11/03 05:09:19;;;;;;;6.53;1.45;;;10.90;99.90;;;;;;4970182;28;20042;-73
2022/11/03 05:11:45;;;;;;;4.75;1.17;;;10.90;99.90;;;;;;4971357;28;20045;-73
2022/11/03 05:14:20;;;;;;;9.50;1.38;;;10.90;99.90;;;;;;4977321;28;20091;-73
2022/11/03 05:16:49;;;;;;;5.97;1.38;;;10.90;99.90;;;;;;4967984;28;20512;-71
2022/11/03 05:19:21;;;;;;;11.98;1.48;;;10.90;99.90;;;;;;4991621;28;20219;-74
2022/11/03 05:21:49;;;;;;;6.00;1.25;;;11.00;99.90;;;;;;4970824;28;20409;-74
2022/11/03 05:24:16;;;;;;;7.30;1.58;;;10.90;99.90;;;;;;4952759;28;20038;-73
2022/11/03 05:26:42;;;;;;;8.63;1.45;;;11.00;99.90;;;;;;4969454;28;20050;-73
2022/11/03 05:29:12;;;;;;;8.30;1.27;;;11.00;99.90;;;;;;4972259;28;20038;-74
2022/11/03 05:31:40;;;;;;;12.02;1.88;;;11.00;99.90;;;;;;4969153;28;20443;-73
2022/11/03 05:34:29;;;;;;;9.77;1.58;;;11.00;99.90;;;;;;4988501;28;20049;-71
2022/11/03 05:36:59;;;;;;;5.05;1.52;;;11.00;99.90;;;;;;4974295;28;20511;-71
2022/11/03 05:39:36;;;;;;;2.92;0.95;;;11.00;99.90;;;;;;4972309;28;20412;-71
2022/11/03 05:42:36;;;;;;;7.90;1.88;;;11.00;99.90;;;;;;4982538;28;20096;-71
2022/11/03 05:45:13;;;;;;;9.93;2.13;;;11.00;99.90;;;;;;4954642;28;20030;-70
2022/11/03 05:47:39;;;;;;;9.25;1.67;;;11.00;99.90;;;;;;4989387;28;20042;-71
2022/11/03 05:50:18;;;;;;;7.85;1.58;;;11.00;99.90;;;;;;4971275;28;20038;-72
2022/11/03 05:52:46;;;;;;;6.03;1.55;;;11.00;99.90;;;;;;4982372;28;20042;-72
2022/11/03 05:55:21;;;;;;;4.57;1.27;;;11.00;99.90;;;;;;4977794;28;20682;-69
2022/11/03 05:57:47;;;;;;;6.20;2.15;;;11.00;99.90;;;;;;4982402;28;20081;-72
2022/11/03 06:00:36;;;;;;;8.65;1.48;;;11.00;99.90;;;;;;4965327;28;20038;-75
2022/11/03 06:03:03;;;;;;;8.85;1.50;;;11.00;99.90;;;;;;4974717;28;20057;-73
2022/11/03 06:05:33;;;;;;;8.25;1.40;;;11.00;99.90;;;;;;4967273;28;20424;-74
2022/11/03 06:08:20;;;;;;;8.30;1.75;;;10.90;99.90;;;;;;4990110;28;20038;-73
2022/11/03 06:10:52;;;;;;;4.93;1.38;;;11.10;99.90;;;;;;4975683;28;20504;-74
2022/11/03 06:13:29;;;;;;;7.55;1.35;;;11.00;99.90;;;;;;4966534;28;20053;-71
2022/11/03 06:16:05;;;;;;;11.00;1.48;;;11.00;99.90;;;;;;4969392;28;20400;-73
2022/11/03 06:18:35;;;;;;;3.88;1.45;;;11.00;99.90;;;;;;4984699;28;20093;-73
2022/11/03 06:21:20;;;;;;;5.65;1.55;;;11.00;99.90;;;;;;4988075;28;20301;-73
2022/11/03 06:23:46;;;;;;;7.75;1.75;;;11.00;99.90;;;;;;4976158;28;20077;-72
2022/11/03 06:26:22;;;;;;;6.38;1.88;;;11.00;99.90;;;;;;4974509;28;20038;-71
2022/11/03 06:28:48;;;;;;;8.57;1.58;;;11.00;99.90;;;;;;4968367;28;20359;-72
2022/11/03 06:31:22;;;;;;;4.05;1.17;;;11.00;99.90;;;;;;4983528;28;20433;-72
2022/11/03 06:33:50;;;;;;;5.40;1.15;;;11.00;99.90;;;;;;4964919;28;20574;-69
2022/11/03 06:36:19;;;;;;;5.15;1.45;;;11.00;99.90;;;;;;4953509;28;20061;-69
2022/11/03 06:38:59;;;;;;;7.00;1.90;;;11.00;99.90;;;;;;4979135;28;20065;-70
2022/11/03 06:41:26;;;;;;;8.05;2.80;;;11.10;99.90;;;;;;4985125;28;20480;-69
2022/11/03 06:43:53;;;;;;;5.57;1.48;;;11.00;99.90;;;;;;4986911;28;20038;-70
2022/11/03 06:46:26;;;;;;;4.97;1.58;;;11.10;99.90;;;;;;4985001;28;20049;-69
2022/11/03 06:48:54;;;;;;;6.35;1.73;;;11.00;99.90;;;;;;4978013;28;20189;-71
2022/11/03 06:51:27;;;;;;;8.20;1.60;;;11.10;99.90;;;;;;4966426;28;20038;-72
2022/11/03 06:53:57;;;;;;;8.13;2.05;;;11.10;99.90;;;;;;4977759;28;20033;-69
2022/11/03 06:56:26;;;;;;;5.35;1.50;;;11.10;99.90;;;;;;4972915;28;20041;-70
2022/11/03 06:58:54;;;;;;;6.28;1.60;;;11.10;99.90;;;;;;4966045;28;20348;-70
2022/11/03 07:01:21;;;;;;;2.45;1.00;;;11.10;99.90;;;;;;4966943;28;20034;-70
2022/11/03 07:03:55;;;;;;;5.10;1.40;;;11.10;99.90;;;;;;4978581;28;20042;-70
2022/11/03 07:06:25;;;;;;;6.78;1.85;;;11.10;99.90;;;;;;4964467;28;20373;-69
2022/11/03 07:08:59;;;;;;;8.20;1.35;;;11.10;99.90;;;;;;4961764;28;20042;-69
2022/11/03 07:11:29;;;;;;;5.20;1.10;;;11.10;99.90;;;;;;4979807;28;20050;-69
2022/11/03 07:13:58;;;;;;;8.43;1.70;;;11.10;99.90;;;;;;4962252;28;20049;-69
2022/11/03 07:16:34;;;;;;;6.18;1.60;;;11.20;99.90;;;;;;4981737;28;20057;-69
2022/11/03 07:19:05;;;;;;;5.88;1.73;;;11.20;99.90;;;;;;4980284;28;20041;-69
2022/11/03 07:21:39;;;;;;;8.07;1.63;;;11.20;99.90;;;;;;4991510;28;20504;-69
2022/11/03 07:24:17;;;;;;;8.57;2.00;;;11.30;99.90;;;;;;4967583;28;20050;-69
2022/11/03 07:26:43;;;;;;;6.38;1.50;;;11.20;99.90;;;;;;4987324;28;21134;-69
2022/11/03 07:29:21;;;;;;;3.97;1.50;;;11.30;99.90;;;;;;4959694;28;20219;-69
2022/11/03 07:31:49;;;;;;;5.30;1.85;;;11.30;99.90;;;;;;4971770;28;20105;-69
2022/11/03 07:34:20;;;;;;;5.35;1.52;;;11.30;99.90;;;;;;4986883;28;20485;-69
2022/11/03 07:36:47;;;;;;;4.55;1.27;;;11.30;99.90;;;;;;4978110;28;20042;-69
2022/11/03 07:39:16;;;;;;;7.82;1.55;;;11.30;99.90;;;;;;4976162;28;20306;-69
2022/11/03 07:41:43;;;;;;;4.95;1.30;;;11.40;99.90;;;;;;4962526;28;20077;-69
2022/11/03 07:44:14;;;;;;;6.32;1.33;;;11.40;99.90;;;;;;4970695;28;20401;-71
2022/11/03 07:46:42;;;;;;;5.15;1.23;;;11.40;99.90;;;;;;4980743;28;20456;-71
2022/11/03 07:49:23;;;;;;;5.32;1.92;;;11.40;99.90;;;;;;4956664;28;20041;-69
2022/11/03 07:51:49;;;;;;;6.43;1.85;;;11.50;99.90;;;;;;4969305;28;20400;-67
2022/11/03 07:54:20;;;;;;;4.47;1.17;;;11.50;99.90;;;;;;4977074;28;20122;-69
2022/11/03 07:56:50;;;;;;;8.73;1.25;;;11.50;99.90;;;;;;4969810;28;20050;-70
2022/11/03 07:59:25;;;;;;;7.10;1.85;;;11.50;99.90;;;;;;4988626;28;20069;-69
2022/11/03 08:01:59;;;;;;;8.60;1.45;;;11.50;99.90;;;;;;4972457;28;20072;-70
2022/11/03 08:04:27;;;;;;;4.55;1.48;;;11.60;99.90;;;;;;4953079;28;20049;-70
2022/11/03 08:06:53;;;;;;;4.28;1.55;;;11.60;99.90;;;;;;4991562;28;20427;-69
2022/11/03 08:09:20;;;;;;;8.27;1.50;;;11.60;99.90;;;;;;4949985;28;20084;-69
2022/11/03 08:11:45;;;;;;;;;;;11.70;99.90;;;;;;4960856;28;20038;-69
2022/11/03 08:14:11;;;;;;;7.13;2.25;;;11.70;99.90;;;;;;4964750;28;19976;-69
2022/11/03 08:16:37;;;;;;;10.15;1.92;;;11.70;99.90;;;;;;4948387;28;20125;-69
2022/11/03 08:19:03;;;;;;;9.52;1.40;;;11.80;99.90;;;;;;4983173;28;20046;-70
2022/11/03 08:21:29;;;;;;;5.68;1.50;;;11.80;99.90;;;;;;4963718;28;20227;-69
2022/11/03 08:23:55;;;;;;;4.97;1.23;;;11.80;99.90;;;;;;4966613;28;20042;-72
2022/11/03 08:26:20;;;;;;;6.43;1.97;;;11.90;99.90;;;;;;4991418;28;20034;-70
2022/11/03 08:28:46;;;;;;;5.68;2.42;;;12.00;99.90;;;;;;4988201;28;20034;-70
2022/11/03 08:31:12;;;;;;;8.00;1.50;;;12.00;99.90;;;;;;4973214;28;20043;-69
2022/11/03 08:33:41;;;;;;;5.45;1.40;;;12.00;99.90;;;;;;4968590;28;20145;-69
2022/11/03 08:36:07;;;;;;;8.32;1.27;;;12.10;99.90;;;;;;4964062;28;20101;-69
2022/11/03 08:38:33;;;;;;;6.35;1.83;;;12.10;99.90;;;;;;4951628;28;20049;-69
2022/11/03 08:40:59;;;;;;;7.40;1.70;;;12.10;99.90;;;;;;4980437;28;20042;-70
2022/11/03 08:43:25;;;;;;;7.95;1.83;;;12.20;99.90;;;;;;4982371;28;20038;-69
2022/11/03 08:45:52;;;;;;;8.52;1.83;;;12.20;99.90;;;;;;4962569;28;20500;-69
2022/11/03 08:48:28;;;;;;;11.25;2.63;;;12.20;99.90;;;;;;4991381;28;20369;-69
2022/11/03 08:50:54;;;;;;;7.55;1.40;;;12.20;99.90;;;;;;4967678;28;20046;-70
2022/11/03 08:53:21;;;;;;;;;;;12.30;99.90;;;;;;4983039;28;20521;-69
2022/11/03 08:55:47;;;;;;;7.47;1.63;;;12.40;99.90;;;;;;4967704;28;19918;-69
2022/11/03 08:58:13;;;;;;;7.80;1.30;;;12.30;99.90;;;;;;4985661;28;20100;-69
2022/11/03 09:00:38;;;;;;;5.18;1.65;;;12.30;99.90;;;;;;4959787;28;20392;-69
2022/11/03 09:03:04;;;;;;;5.40;1.48;;;12.40;99.90;;;;;;4980696;28;20046;-72
2022/11/03 09:05:30;;;;;;;6.90;1.40;;;12.40;99.90;;;;;;4981616;22;20053;-72
2022/11/03 09:07:56;;;;;;;4.70;1.37;;;12.40;99.90;;;;;;5007725;28;20284;-73
2022/11/03 09:10:21;;;;;;;5.40;1.60;;;12.40;99.90;;;;;;4989177;28;20137;-72
2022/11/03 09:12:47;;;;;;;6.77;1.83;;;12.50;99.90;;;;;;4982053;28;20045;-72
2022/11/03 09:15:13;;;;;;;5.60;1.52;;;12.50;99.90;;;;;;4987184;28;20038;-73
2022/11/03 09:17:38;;;;;;;5.40;1.23;;;12.60;99.90;;;;;;4997262;28;20079;-73
2022/11/03 09:20:05;;;;;;;6.43;1.37;;;12.60;99.90;;;;;;4991904;28;20128;-73
2022/11/03 09:22:30;;;;;;;8.68;2.03;;;12.70;99.90;;;;;;5021451;28;20290;-73
2022/11/03 09:24:56;;;;;;;6.55;1.40;;;12.70;99.90;;;;;;5003510;28;20174;-72
2022/11/03 09:27:22;;;;;;;6.53;1.92;;;12.70;99.90;;;;;;5001551;28;20034;-73
2022/11/03 09:29:48;;;;;;;6.75;1.63;;;12.70;99.90;;;;;;5017074;28;20045;-73
2022/11/03 09:32:14;;;;;;;9.63;1.60;;;12.80;99.90;;;;;;4991215;28;20053;-73
2022/11/03 09:34:40;;;;;;;;;;;12.80;99.90;;;;;;4991852;28;20056;-72
2022/11/03 09:37:06;;;;;;;5.60;1.60;;;12.90;99.90;;;;;;5013605;28;19917;-72
2022/11/03 09:39:32;;;;;;;4.70;1.20;;;12.90;99.90;;;;;;4994859;28;20064;-71
2022/11/03 09:41:59;;;;;;;6.47;1.60;;;12.90;99.90;;;;;;5008192;28;20038;-71
2022/11/03 09:44:25;;;;;;;6.65;1.80;;;12.90;99.90;;;;;;5002495;28;20033;-72
2022/11/03 09:46:51;;;;;;;6.47;1.42;;;13.00;99.90;;;;;;4989157;28;20305;-71
2022/11/03 09:49:19;;;;;;;5.55;1.58;;;13.00;99.90;;;;;;4991083;28;20058;-71
2022/11/03 09:51:45;;;;;;;5.90;1.45;;;13.10;99.90;;;;;;4991411;28;20046;-72
2022/11/03 09:54:16;;;;;;;7.95;1.40;;;13.10;99.90;;;;;;4995666;28;20095;-71
2022/11/03 09:56:42;;;;;;;6.82;1.52;;;13.20;99.90;;;;;;5016502;28;20487;-71
2022/11/03 09:59:20;;;;;;;8.02;2.38;;;13.20;99.90;;;;;;5016900;28;20054;-71
2022/11/03 10:01:48;;;;;;;5.72;1.60;;;13.30;99.90;;;;;;4990343;28;20042;-72
2022/11/03 10:04:18;;;;;;;9.77;1.70;;;13.30;99.90;;;;;;5009653;28;20488;-71
2022/11/03 10:06:44;;;;;;;10.85;1.67;;;13.30;99.90;;;;;;4995051;28;20458;-71
2022/11/03 10:09:16;;;;;;;3.70;1.27;;;13.30;99.90;;;;;;4993269;28;20038;-71
2022/11/03 10:11:44;;;;;;;6.75;1.70;;;13.30;99.90;;;;;;4999020;28;20129;-71
2022/11/03 10:14:13;;;;;;;4.13;1.27;;;13.40;99.90;;;;;;4969235;28;20048;-71
2022/11/03 10:16:41;;;;;;;7.25;1.65;;;13.30;99.90;;;;;;5009155;28;20501;-71
2022/11/03 10:19:13;;;;;;;5.90;1.40;;;13.40;99.90;;;;;;4976663;28;20044;-71
2022/11/03 10:21:40;;;;;;;9.13;2.13;;;13.40;99.90;;;;;;5013668;28;20053;-72
2022/11/03 10:24:11;;;;;;;12.93;1.92;;;13.40;99.90;;;;;;4997046;28;20181;-71
2022/11/03 10:26:50;;;;;;;4.90;1.48;;;13.50;99.90;;;;;;4993090;28;20100;-71
2022/11/03 10:29:26;;;;;;;6.22;1.50;;;13.50;99.90;;;;;;5003183;28;20161;-71
2022/11/03 10:31:55;;;;;;;6.35;1.58;;;13.50;99.90;;;;;;4994528;28;20577;-70
2022/11/03 10:34:38;;;;;;;7.30;1.20;;;13.50;99.90;;;;;;4986350;28;20119;-71
2022/11/03 10:37:23;;;;;;;5.53;1.52;;;13.50;99.90;;;;;;5003427;28;20046;-71
2022/11/03 10:39:52;;;;;;;8.20;1.67;;;13.50;99.90;;;;;;4989135;28;20045;-71
2022/11/03 10:42:29;;;;;;;9.38;1.40;;;13.60;99.90;;;;;;4989684;28;20033;-71
2022/11/03 10:45:13;;;;;;;13.05;2.08;;;13.60;99.90;;;;;;4989989;28;20137;-70
2022/11/03 10:47:38;;;;;;;6.43;1.50;;;13.70;99.90;;;;;;5005055;28;20069;-71
2022/11/03 10:50:25;;;;;;;4.75;1.33;;;13.70;99.90;;;;;;4992435;28;20033;-71
2022/11/03 10:52:52;;;;;;;4.72;1.38;;;13.80;99.90;;;;;;5007067;28;20038;-71
2022/11/03 10:55:19;;;;;;;8.98;1.35;;;13.80;99.90;;;;;;4980054;28;20067;-70
2022/11/03 10:57:45;;;;;;;11.35;1.60;;;13.90;99.90;;;;;;4987812;28;20102;-70
2022/11/03 11:00:16;;;;;;;4.05;1.40;;;13.90;99.90;;;;;;4990612;28;20090;-70
2022/11/03 11:02:55;;;;;;;8.27;1.52;;;13.90;99.90;;;;;;5001844;28;20084;-70
2022/11/03 11:05:22;;;;;;;8.25;1.52;;;14.00;99.90;;;;;;4981730;28;20440;-71
2022/11/03 11:07:50;;;;;;;8.63;1.83;;;14.00;99.90;;;;;;5001022;28;20057;-71
2022/11/03 11:10:17;;;;;;;3.40;1.30;;;14.00;99.90;;;;;;4971633;28;20034;-71
2022/11/03 11:13:14;;;;;;;5.38;1.05;;;14.10;99.90;;;;;;4993595;28;20300;-71
2022/11/03 11:15:43;;;;;;;4.82;1.27;;;14.10;99.90;;;;;;5006756;28;20079;-70
2022/11/03 11:18:09;;;;;;;5.35;1.33;;;14.20;99.90;;;;;;4974384;28;20049;-71
2022/11/03 11:20:41;;;;;;;;;;;14.20;99.90;;;;;;4989207;28;20534;-71
2022/11/03 11:23:36;;;;;;;7.80;2.45;;;14.20;99.90;;;;;;4988572;28;19940;-71
2022/11/03 11:26:08;;;;;;;5.47;1.70;;;14.30;99.90;;;;;;4970300;28;20042;-71
2022/11/03 11:28:34;;;;;;;3.70;1.25;;;14.30;99.90;;;;;;4992428;28;20163;-71
2022/11/03 11:31:00;;;;;;;4.32;1.48;;;14.40;99.90;;;;;;4987910;28;20102;-71
2022/11/03 11:33:28;;;;;;;3.95;1.25;;;14.50;99.90;;;;;;4985949;28;20045;-71
2022/11/03 11:35:54;;;;;;;7.20;1.70;;;14.60;99.90;;;;;;4996413;28;20096;-71
2022/11/03 11:38:44;;;;;;;4.83;0.93;;;14.70;99.90;;;;;;4976071;28;20443;-71
2022/11/03 11:41:10;;;;;;;2.85;1.00;;;14.70;99.90;;;;;;4982406;28;20272;-71
2022/11/03 11:43:36;;;;;;;10.02;1.20;;;14.70;99.90;;;;;;4989325;28;20045;-71
2022/11/03 11:46:21;;;;;;;5.30;1.25;;;14.80;99.90;;;;;;4978252;28;20041;-71
2022/11/03 11:49:01;;;;;;;2.95;0.90;;;14.80;99.90;;;;;;5002573;28;20049;-71
2022/11/03 11:51:27;;;;;;;4.05;1.20;;;14.70;99.90;;;;;;4997208;28;20175;-71
2022/11/03 11:53:53;;;;;;;3.88;0.90;;;14.80;99.90;;;;;;4989276;28;20057;-71
2022/11/03 11:56:19;;;;;;;6.82;1.13;;;14.80;99.90;;;;;;4998281;28;20137;-71
2022/11/03 11:58:50;;;;;;;6.88;1.08;;;14.80;99.90;;;;;;4982248;28;20124;-71
2022/11/03 12:01:29;;;;;;;7.95;1.70;;;14.80;99.90;;;;;;5006800;28;20042;-71
2022/11/03 12:03:58;;;;;;;6.63;1.58;;;14.80;99.90;;;;;;5001352;28;20039;-71
2022/11/03 12:06:33;;;;;;;5.70;1.20;;;14.80;99.90;;;;;;5006569;28;20141;-71
2022/11/03 12:09:19;;;;;;;7.25;1.77;;;14.80;99.90;;;;;;4978924;28;20502;-72
2022/11/03 12:11:54;;;;;;;5.57;1.50;;;14.80;99.90;;;;;;4998168;28;20113;-71
2022/11/03 12:14:32;;;;;;;6.57;1.80;;;14.80;99.90;;;;;;4974759;28;20095;-71
2022/11/03 12:17:17;;;;;;;6.28;1.45;;;14.70;99.90;;;;;;4997231;28;20046;-71
2022/11/03 12:19:53;;;;;;;11.18;1.50;;;14.70;99.90;;;;;;4981470;28;20038;-71
2022/11/03 12:22:25;;;;;;;6.78;1.63;;;14.70;99.90;;;;;;4986794;28;20049;-71
2022/11/03 12:24:58;;;;;;;6.13;1.02;;;14.70;99.90;;;;;;4971292;28;20038;-71
2022/11/03 12:27:24;;;;;;;5.60;1.80;;;14.70;99.90;;;;;;4977958;28;20531;-71
2022/11/03 12:29:58;;;;;;;3.25;1.00;;;14.70;99.90;;;;;;4990935;28;20046;-71
2022/11/03 12:32:24;;;;;;;4.07;1.20;;;14.70;99.90;;;;;;4982233;28;20041;-71
2022/11/03 12:34:50;;;;;;;;;;;14.70;99.90;;;;;;4991261;28;20089;-71
2022/11/03 12:37:15;;;;;;;4.88;1.65;;;14.70;99.90;;;;;;4982046;28;20048;-71
2022/11/03 12:39:41;;;;;;;2.95;1.05;;;14.70;99.90;;;;;;4980978;28;20503;-71
2022/11/03 12:42:07;;;;;;;1.65;0.80;;;14.70;99.90;;;;;;4984122;28;20045;-71
2022/11/03 12:44:33;;;;;;;3.03;1.10;;;14.70;99.90;;;;;;4988030;28;20659;-71
2022/11/03 12:47:00;;;;;;;4.88;1.10;;;14.70;99.90;;;;;;4986449;28;20045;-71
2022/11/03 12:49:25;;;;;;;4.03;0.77;;;14.70;99.90;;;;;;4990614;28;20479;-71
2022/11/03 12:51:51;;;;;;;5.03;1.13;;;14.70;99.90;;;;;;4982583;28;20136;-70
2022/11/03 12:54:17;;;;;;;6.45;1.17;;;14.80;99.90;;;;;;4985887;28;20133;-71
2022/11/03 12:56:43;;;;;;;5.07;1.52;;;14.70;99.90;;;;;;4995622;28;20112;-71
2022/11/03 12:59:08;;;;;;;3.20;1.25;;;14.80;99.90;;;;;;5012727;28;20050;-71
2022/11/03 13:01:34;;;;;;;7.55;1.17;;;14.80;99.90;;;;;;4987288;28;20896;-71
2022/11/03 13:04:00;;;;;;;7.50;1.73;;;14.80;99.90;;;;;;5009021;28;20535;-71
2022/11/03 13:06:26;;;;;;;3.65;0.88;;;14.90;99.90;;;;;;5004627;28;20106;-71
2022/11/03 13:08:52;;;;;;;5.95;1.45;;;14.90;99.90;;;;;;4992119;28;20519;-71
2022/11/03 13:14:03;;;;;;;5.00;1.30;;;14.90;99.90;;;;;;5001003;28;20187;-71
2022/11/03 13:16:29;;;;;;;7.32;1.35;;;14.90;99.90;;;;;;5005023;28;20049;-71
2022/11/03 13:18:55;;;;;;;5.70;1.05;;;14.90;99.90;;;;;;5003510;28;20112;-71
2022/11/03 13:21:21;;;;;;;2.58;0.90;;;14.90;99.90;;;;;;4990006;28;20128;-71
2022/11/03 13:23:46;;;;;;;4.57;0.98;;;14.80;99.90;;;;;;5011039;28;20104;-71
2022/11/03 13:26:12;;;;;;;9.63;1.50;;;14.80;99.90;;;;;;5002028;28;20061;-71
2022/11/03 13:28:38;;;;;;;4.53;1.33;;;14.80;99.90;;;;;;4993513;28;20046;-71
2022/11/03 13:31:04;;;;;;;2.22;0.80;;;14.80;99.90;;;;;;5008995;28;20126;-71
2022/11/03 13:33:29;;;;;;;8.82;1.83;;;14.70;99.90;;;;;;4990447;28;20038;-71
2022/11/03 13:35:55;;;;;;;5.95;1.13;;;14.70;99.90;;;;;;5006114;28;20046;-71
2022/11/03 13:38:21;;;;;;;2.67;0.93;;;14.70;99.90;;;;;;4995383;28;20046;-72
2022/11/03 13:40:46;;;;;;;5.13;1.10;;;14.70;99.90;;;;;;4997190;28;20533;-72
2022/11/03 13:43:12;;;;;;;3.08;1.10;;;14.70;99.90;;;;;;4995355;28;20046;-71
2022/11/03 13:45:38;;;;;;;5.63;1.80;;;14.60;99.90;;;;;;4980892;28;20141;-71